Time;durP1;ratioP1;P1;durP2;ratioP2;P2;SDS_P1;SDS_P2;PMS_P1;PMS_P2;Temp;Humidity;BMP_temperature;BMP_pressure;BME280_temperature;BME280_humidity;BME280_pressure;Samples;Min_cycle;Max_cycle;Signal;HPM_P1;HPM_P2
2023/01/30 00:01:04;;;;;;;19.20;11.67;;;;;;;-2.78;100.00;98862.78;4991908;28;20241;-79
2023/01/30 00:03:30;;;;;;;20.07;11.77;;;;;;;-2.80;100.00;98859.38;4992443;28;20224;-79
2023/01/30 00:05:57;;;;;;;18.83;11.77;;;;;;;-2.83;100.00;98846.44;4992333;28;20213;-79
2023/01/30 00:08:23;;;;;;;16.87;11.30;;;;;;;-2.81;100.00;98834.38;4991928;28;20213;-79
2023/01/30 00:10:50;;;;;;;18.43;10.97;;;;;;;-2.85;100.00;98824.91;4991641;28;20252;-79
2023/01/30 00:13:17;;;;;;;18.87;12.00;;;;;;;-2.83;100.00;98823.16;4992181;28;20216;-78
2023/01/30 00:15:44;;;;;;;22.57;12.80;;;;;;;-2.76;100.00;98819.69;4992419;28;20212;-78
2023/01/30 00:18:12;;;;;;;17.13;11.27;;;;;;;-2.75;100.00;98830.00;4992105;28;20217;-79
2023/01/30 00:20:38;;;;;;;19.97;11.87;;;;;;;-2.74;100.00;98825.72;4991604;28;20233;-79
2023/01/30 00:23:04;;;;;;;15.97;10.90;;;;;;;-2.81;100.00;98829.22;4991859;28;20225;-79
2023/01/30 00:25:31;;;;;;;16.13;11.37;;;;;;;-2.79;100.00;98836.09;4991717;28;20224;-79
2023/01/30 00:27:59;;;;;;;18.23;10.73;;;;;;;-2.90;100.00;98819.75;4992112;28;20236;-79
2023/01/30 00:30:26;;;;;;;20.07;11.20;;;;;;;-2.99;100.00;98818.97;4991480;28;20237;-79
2023/01/30 00:32:54;;;;;;;18.87;11.27;;;;;;;-2.92;100.00;98816.34;4991936;28;20848;-79
2023/01/30 00:35:27;;;;;;;17.07;10.77;;;;;;;-3.03;100.00;98810.38;4991700;28;20683;-78
2023/01/30 00:37:54;;;;;;;21.07;11.73;;;;;;;-3.01;100.00;98812.94;4991713;28;20212;-78
2023/01/30 00:40:21;;;;;;;20.27;12.00;;;;;;;-3.05;100.00;98806.06;4991578;28;20261;-78
2023/01/30 00:48:15;;;;;;;20.30;12.07;;;;;;;-3.05;100.00;98829.34;4991933;28;20208;-78
2023/01/30 00:50:43;;;;;;;18.23;11.37;;;;;;;-3.02;100.00;98834.47;4994526;28;20241;-78
2023/01/30 00:53:11;;;;;;;15.93;11.17;;;;;;;-3.09;100.00;98840.53;4995953;28;20209;-78
2023/01/30 00:55:37;;;;;;;19.77;11.70;;;;;;;-3.12;100.00;98849.16;4995676;28;20220;-78
2023/01/30 00:58:04;;;;;;;20.77;12.73;;;;;;;-3.07;100.00;98856.94;4995617;28;20223;-78
2023/01/30 01:00:31;;;;;;;19.93;12.67;;;;;;;-2.94;100.00;98869.78;4995138;28;20224;-78
2023/01/30 01:02:58;;;;;;;23.20;13.33;;;;;;;-2.84;100.00;98886.09;4995593;28;20220;-78
2023/01/30 01:05:24;;;;;;;19.17;11.43;;;;;;;-2.70;100.00;98886.91;4995615;28;20213;-78
2023/01/30 01:07:52;;;;;;;20.10;12.27;;;;;;;-2.72;100.00;98880.88;4995538;28;20212;-77
2023/01/30 01:10:18;;;;;;;19.70;11.87;;;;;;;-2.73;100.00;98868.81;4995091;28;20234;-77
2023/01/30 01:12:45;;;;;;;20.03;11.80;;;;;;;-2.68;100.00;98867.94;4995584;28;20220;-80
2023/01/30 01:15:12;;;;;;;19.43;11.73;;;;;;;-2.57;100.00;98880.81;4995379;28;20216;-77
2023/01/30 01:17:39;;;;;;;21.53;13.07;;;;;;;-2.54;100.00;98870.41;4995096;28;20217;-77
2023/01/30 01:20:07;;;;;;;18.33;11.17;;;;;;;-2.53;100.00;98874.72;4995065;28;20225;-77
2023/01/30 01:22:34;;;;;;;20.03;12.40;;;;;;;-2.50;100.00;98872.97;4995150;28;20212;-77
2023/01/30 01:25:02;;;;;;;18.80;11.17;;;;;;;-2.46;100.00;98869.50;4995216;28;20222;-78
2023/01/30 01:27:29;;;;;;;21.20;12.77;;;;;;;-2.43;100.00;98878.97;4995114;28;20247;-77
2023/01/30 01:29:55;;;;;;;19.53;11.80;;;;;;;-2.38;100.00;98892.75;4994494;28;20237;-78
2023/01/30 01:32:22;;;;;;;18.43;11.60;;;;;;;-2.39;100.00;98901.41;4995102;28;20214;-77
2023/01/30 01:34:48;;;;;;;18.33;11.53;;;;;;;-2.35;100.00;98897.91;4995010;28;20214;-79
2023/01/30 01:37:15;;;;;;;17.43;10.63;;;;;;;-2.36;100.00;98886.72;4995080;28;20224;-77
2023/01/30 01:42:33;;;;;;;18.63;12.33;;;;;;;-2.23;100.00;98884.88;4994796;28;20240;-77
2023/01/30 01:45:10;;;;;;;18.10;11.10;;;;;;;-2.31;100.00;98881.50;4994958;28;20211;-77
2023/01/30 01:47:40;;;;;;;19.23;11.23;;;;;;;-2.22;100.00;98878.81;4994962;28;20560;-77
2023/01/30 01:50:13;;;;;;;18.23;11.40;;;;;;;-2.24;100.00;98881.44;4994398;28;20610;-77
2023/01/30 01:52:40;;;;;;;17.47;11.30;;;;;;;-2.22;100.00;98876.25;4994558;28;20707;-79
2023/01/30 01:55:07;;;;;;;17.30;10.70;;;;;;;-2.25;100.00;98858.16;4994403;28;20220;-77
2023/01/30 01:57:39;;;;;;;19.03;11.43;;;;;;;-2.23;100.00;98867.63;4994525;28;20216;-77
2023/01/30 02:00:10;;;;;;;21.27;11.80;;;;;;;-2.22;100.00;98873.66;4993247;28;20238;-77
2023/01/30 02:02:39;;;;;;;18.13;10.50;;;;;;;-2.21;100.00;98886.59;4992633;28;20214;-77
2023/01/30 02:05:09;;;;;;;18.70;11.10;;;;;;;-2.16;100.00;98878.78;4994427;28;20225;-77
2023/01/30 02:07:39;;;;;;;16.83;11.00;;;;;;;-2.15;100.00;98881.38;4994261;28;20288;-77
2023/01/30 02:10:08;;;;;;;19.23;10.97;;;;;;;-2.07;100.00;98879.59;4994054;28;20237;-77
2023/01/30 02:12:37;;;;;;;16.93;11.00;;;;;;;-2.02;100.00;98861.44;4994413;28;20206;-77
2023/01/30 02:15:05;;;;;;;18.07;10.73;;;;;;;-1.99;100.00;98857.06;4994313;28;20593;-77
2023/01/30 02:17:32;;;;;;;14.67;9.53;;;;;;;-2.03;100.00;98850.19;4994115;28;20216;-77
2023/01/30 02:20:05;;;;;;;16.50;10.93;;;;;;;-2.07;100.00;98837.28;4993682;28;20229;-77
2023/01/30 02:23:07;;;;;;;16.93;10.83;;;;;;;-2.14;100.00;98846.00;4994376;28;20214;-77
2023/01/30 02:26:02;;;;;;;18.83;11.10;;;;;;;-2.36;100.00;98839.25;4994252;28;20232;-76
2023/01/30 02:28:45;;;;;;;18.90;11.30;;;;;;;-2.48;100.00;98823.81;4993963;28;20209;-77
2023/01/30 02:31:22;;;;;;;18.37;11.23;;;;;;;-2.53;100.00;98835.91;4993626;28;20230;-77
2023/01/30 02:34:01;;;;;;;18.87;10.70;;;;;;;-2.58;100.00;98837.69;4993960;28;20216;-77
2023/01/30 02:36:38;;;;;;;19.77;11.93;;;;;;;-2.61;100.00;98848.91;4993851;28;20220;-77
2023/01/30 02:39:18;;;;;;;18.30;11.83;;;;;;;-2.57;100.00;98819.53;4993728;28;20231;-77
2023/01/30 02:41:52;;;;;;;17.30;11.50;;;;;;;-2.64;100.00;98789.41;4993712;28;20240;-77
2023/01/30 02:44:27;;;;;;;18.63;11.77;;;;;;;-2.62;100.00;98784.25;4993968;28;20220;-77
2023/01/30 02:46:58;;;;;;;20.00;12.17;;;;;;;-2.62;100.00;98797.19;4993783;28;20208;-79
2023/01/30 02:49:30;;;;;;;21.43;12.00;;;;;;;-2.55;100.00;98807.47;4993121;28;20735;-79
2023/01/30 02:51:59;;;;;;;18.43;11.90;;;;;;;-2.59;100.00;98815.25;4993413;28;20222;-77
2023/01/30 02:54:25;;;;;;;19.77;12.17;;;;;;;-2.60;100.00;98808.38;4993449;28;20275;-79
2023/01/30 02:56:53;;;;;;;18.83;11.67;;;;;;;-2.62;100.00;98779.06;4993643;28;20287;-79
2023/01/30 02:59:24;;;;;;;21.93;12.97;;;;;;;-2.61;100.00;98786.81;4993236;28;20438;-77
2023/01/30 03:02:36;;;;;;;20.10;12.93;;;;;;;-2.56;100.00;98804.91;4993381;28;20244;-77
2023/01/30 03:05:22;;;;;;;20.13;12.00;;;;;;;-2.46;100.00;98801.38;4980906;28;20794;-77
2023/01/30 03:07:55;;;;;;;20.60;12.73;;;;;;;-2.39;100.00;98787.53;4993244;28;20282;-79
2023/01/30 03:10:30;;;;;;;17.63;11.40;;;;;;;-2.35;100.00;98764.19;4992782;28;20654;-77
2023/01/30 03:13:05;;;;;;;18.17;11.73;;;;;;;-2.26;100.00;98769.25;4992416;28;20212;-77
2023/01/30 03:15:36;;;;;;;18.67;11.57;;;;;;;-2.20;100.00;98726.94;4993161;28;20220;-77
2023/01/30 03:18:03;;;;;;;17.60;11.17;;;;;;;-2.12;100.00;98714.75;4993366;28;20208;-77
2023/01/30 03:20:36;;;;;;;17.33;10.93;;;;;;;-2.05;100.00;98696.56;4992719;28;20734;-77
2023/01/30 03:23:03;;;;;;;17.07;10.93;;;;;;;-1.93;100.00;98675.72;4993236;28;20214;-77
2023/01/30 03:25:31;;;;;;;18.47;11.07;;;;;;;-1.85;100.00;98662.69;4992842;28;20222;-79
2023/01/30 03:27:58;;;;;;;17.67;11.17;;;;;;;-1.74;100.00;98637.47;4992942;28;20627;-78
2023/01/30 03:30:26;;;;;;;19.80;10.50;;;;;;;-1.69;100.00;98646.94;4992686;28;20238;-77
2023/01/30 03:32:53;;;;;;;19.00;11.90;;;;;;;-1.63;100.00;98659.81;4992705;28;20213;-77
2023/01/30 03:35:19;;;;;;;17.23;10.90;;;;;;;-1.55;100.00;98663.13;4992718;28;20221;-77
2023/01/30 03:37:48;;;;;;;18.03;11.40;;;;;;;-1.48;100.00;98661.34;4992901;28;20217;-77
2023/01/30 03:40:16;;;;;;;18.03;10.63;;;;;;;-1.39;100.00;98676.75;4992464;28;20234;-77
2023/01/30 03:42:43;;;;;;;17.33;10.50;;;;;;;-1.34;100.00;98674.97;4992826;28;20209;-77
2023/01/30 03:45:11;;;;;;;16.60;10.60;;;;;;;-1.28;100.00;98685.25;4992569;28;20213;-77
2023/01/30 03:47:37;;;;;;;18.20;10.77;;;;;;;-1.25;100.00;98682.59;4992370;28;20217;-77
2023/01/30 03:50:05;;;;;;;17.90;10.10;;;;;;;-1.20;100.00;98679.06;4991918;28;20238;-77
2023/01/30 03:52:34;;;;;;;15.37;9.47;;;;;;;-1.10;100.00;98665.06;4992595;28;20214;-77
2023/01/30 03:55:02;;;;;;;14.13;9.80;;;;;;;-1.11;100.00;98665.13;4992571;28;20586;-77
2023/01/30 03:57:28;;;;;;;17.17;9.93;;;;;;;-1.00;100.00;98664.06;4992339;28;20217;-77
2023/01/30 03:59:54;;;;;;;18.00;10.53;;;;;;;-0.96;100.00;98659.69;4991795;28;20226;-78
2023/01/30 04:02:22;;;;;;;17.00;10.50;;;;;;;-0.94;100.00;98657.91;4992092;28;20214;-77
2023/01/30 04:04:49;;;;;;;15.50;9.70;;;;;;;-0.88;100.00;98663.00;4992397;28;20301;-77
2023/01/30 04:07:15;;;;;;;14.30;9.53;;;;;;;-0.85;100.00;98668.16;4992488;28;20210;-77
2023/01/30 04:09:41;;;;;;;14.37;8.40;;;;;;;-0.78;100.00;98669.78;4991927;28;20211;-77
2023/01/30 04:12:09;;;;;;;13.20;8.63;;;;;;;-0.73;100.00;98653.25;4992300;28;20214;-77
2023/01/30 04:14:36;;;;;;;14.73;10.07;;;;;;;-0.67;100.00;98649.69;4992111;28;20843;-77
2023/01/30 04:17:02;;;;;;;14.40;9.10;;;;;;;-0.65;100.00;98655.72;4992363;28;20209;-77
2023/01/30 04:19:29;;;;;;;12.57;9.00;;;;;;;-0.61;100.00;98647.84;4991922;28;20209;-77
2023/01/30 04:21:55;;;;;;;13.17;8.80;;;;;;;-0.56;100.00;98640.84;4992368;28;20205;-78
2023/01/30 04:24:22;;;;;;;13.10;8.53;;;;;;;-0.51;100.00;98640.78;4991580;28;20206;-78
2023/01/30 04:26:48;;;;;;;13.90;8.57;;;;;;;-0.48;100.00;98643.31;4991976;28;20210;-78
2023/01/30 04:29:16;;;;;;;13.30;8.37;;;;;;;-0.49;100.00;98649.38;4991452;28;20703;-78
2023/01/30 04:31:42;;;;;;;12.53;8.03;;;;;;;-0.43;100.00;98642.31;4991932;28;20321;-78
2023/01/30 04:34:09;;;;;;;13.13;8.13;;;;;;;-0.41;100.00;98640.59;4992064;28;20213;-78
2023/01/30 04:36:36;;;;;;;13.87;8.70;;;;;;;-0.35;100.00;98644.78;4992059;28;20213;-78
2023/01/30 04:39:03;;;;;;;13.70;8.37;;;;;;;-0.31;100.00;98642.09;4991610;28;20213;-78
2023/01/30 04:41:29;;;;;;;13.00;8.07;;;;;;;-0.28;100.00;98639.47;4991735;28;20229;-78
2023/01/30 04:43:56;;;;;;;12.57;7.87;;;;;;;-0.26;100.00;98636.84;4991596;28;20206;-78
2023/01/30 04:46:23;;;;;;;11.43;8.30;;;;;;;-0.29;99.03;98642.09;4991786;28;20207;-78
2023/01/30 04:48:50;;;;;;;11.03;7.53;;;;;;;-0.25;99.21;98636.78;4991627;28;20210;-78
2023/01/30 05:32:03;;;;;;;9.63;6.57;;;;;;;0.09;95.48;98628.34;5010207;28;20254;-86
2023/01/30 05:34:30;;;;;;;10.77;6.73;;;;;;;0.14;95.45;98631.69;5011413;28;20281;-87
2023/01/30 05:36:56;;;;;;;11.17;7.37;;;;;;;0.17;95.01;98621.25;5013704;28;20213;-87
2023/01/30 05:39:23;;;;;;;10.43;6.83;;;;;;;0.23;94.89;98608.13;5014740;28;20221;-87
2023/01/30 05:41:49;;;;;;;11.27;7.13;;;;;;;0.29;94.54;98600.19;5014822;28;20229;-87
2023/01/30 05:44:16;;;;;;;9.57;6.47;;;;;;;0.32;94.45;98605.31;5014544;28;20661;-87
2023/01/30 05:46:42;;;;;;;11.43;6.97;;;;;;;0.36;93.02;98612.16;5015030;28;20214;-87
2023/01/30 05:49:10;;;;;;;8.87;6.47;;;;;;;0.38;93.09;98619.94;5014562;28;20214;-87
2023/01/30 05:51:36;;;;;;;8.90;6.37;;;;;;;0.35;94.18;98631.25;5014486;28;20584;-87
2023/01/30 05:54:03;;;;;;;11.03;6.73;;;;;;;0.37;94.37;98634.66;5014392;28;20681;-87
2023/01/30 05:56:32;;;;;;;10.40;7.03;;;;;;;0.39;94.56;98632.03;5014706;28;20214;-87
2023/01/30 05:58:59;;;;;;;10.77;7.43;;;;;;;0.48;94.97;98619.69;5014013;28;20263;-87
2023/01/30 06:01:26;;;;;;;9.07;6.70;;;;;;;0.47;94.25;98615.41;5014472;28;20229;-87
2023/01/30 06:03:53;;;;;;;10.97;7.17;;;;;;;0.41;94.37;98610.34;5014597;28;20220;-87
2023/01/30 06:06:22;;;;;;;10.30;6.77;;;;;;;0.47;94.56;98602.41;5014624;28;20210;-87
2023/01/30 06:08:53;;;;;;;11.00;6.87;;;;;;;0.50;92.90;98597.13;5014078;28;20224;-87
2023/01/30 06:11:20;;;;;;;9.47;6.50;;;;;;;0.50;91.96;98604.06;5013975;28;20655;-87
2023/01/30 06:13:46;;;;;;;9.83;6.67;;;;;;;0.43;89.80;98592.94;5014266;28;20207;-87
2023/01/30 06:16:15;;;;;;;11.67;6.83;;;;;;;0.50;89.46;98588.47;5014201;28;20214;-87
2023/01/30 06:18:41;;;;;;;8.63;6.07;;;;;;;0.52;88.77;98571.97;5014093;28;20209;-87
2023/01/30 06:21:09;;;;;;;9.90;6.60;;;;;;;0.48;88.81;98575.50;5013886;28;20233;-87
2023/01/30 06:23:37;;;;;;;10.07;7.13;;;;;;;0.55;88.36;98577.06;5014217;28;20240;-87
2023/01/30 06:26:04;;;;;;;10.20;6.47;;;;;;;0.54;88.51;98558.91;5013814;28;20226;-87
2023/01/30 06:28:30;;;;;;;10.27;6.80;;;;;;;0.48;87.94;98562.50;5013929;28;20214;-87
2023/01/30 06:30:57;;;;;;;10.20;6.47;;;;;;;0.45;88.50;98570.34;5013483;28;20237;-87
2023/01/30 06:33:23;;;;;;;8.17;6.07;;;;;;;0.49;88.36;98572.00;5014095;28;20215;-87
2023/01/30 06:35:51;;;;;;;9.37;6.17;;;;;;;0.53;88.92;98549.38;5013850;28;20209;-87
2023/01/30 06:38:19;;;;;;;9.93;6.67;;;;;;;0.48;88.78;98541.69;5014007;28;20220;-87
2023/01/30 06:40:49;;;;;;;9.67;6.63;;;;;;;0.56;88.96;98554.53;5013270;28;20234;-87
2023/01/30 06:43:16;;;;;;;9.63;6.70;;;;;;;0.56;88.79;98550.16;5013753;28;20205;-87
2023/01/30 06:45:43;;;;;;;10.97;6.63;;;;;;;0.58;88.84;98565.75;5013739;28;20213;-87
2023/01/30 06:48:09;;;;;;;8.93;6.30;;;;;;;0.60;89.10;98572.63;5014010;28;20240;-87
2023/01/30 06:50:36;;;;;;;9.63;6.67;;;;;;;0.65;89.04;98562.09;5013103;28;20722;-87
2023/01/30 06:53:04;;;;;;;8.53;6.23;;;;;;;0.68;88.95;98568.09;5013598;28;20214;-86
2023/01/30 06:55:34;;;;;;;11.23;6.47;;;;;;;0.69;89.41;98569.78;5013192;28;20209;-87
2023/01/30 06:58:04;;;;;;;8.90;6.40;;;;;;;0.78;88.52;98573.94;5013388;28;20285;-86
2023/01/30 07:00:31;;;;;;;9.93;6.43;;;;;;;0.78;88.46;98568.72;5013256;28;20231;-87
2023/01/30 07:02:57;;;;;;;9.90;6.67;;;;;;;0.77;87.85;98573.09;5013851;28;20305;-87
2023/01/30 07:05:24;;;;;;;9.93;6.50;;;;;;;0.76;88.18;98571.38;5013207;28;20216;-87
2023/01/30 07:07:51;;;;;;;8.17;5.97;;;;;;;0.79;89.05;98571.31;5013154;28;20217;-87
2023/01/30 07:10:18;;;;;;;10.07;6.33;;;;;;;0.80;89.51;98577.38;5012776;28;20231;-87
2023/01/30 07:12:45;;;;;;;11.57;6.70;;;;;;;0.79;89.82;98581.72;5013427;28;20207;-84
2023/01/30 07:15:13;;;;;;;8.60;6.20;;;;;;;0.88;89.53;98572.81;5016574;28;20219;-93
2023/01/30 07:17:40;;;;;;;10.07;6.77;;;;;;;0.86;89.38;98591.06;5015845;28;20216;-92
2023/01/30 07:20:08;;;;;;;8.50;6.13;;;;;;;0.96;89.53;98616.00;5012554;28;20213;-82
2023/01/30 07:22:35;;;;;;;10.23;6.20;;;;;;;1.00;88.76;98606.38;5012300;28;20260;-93
2023/01/30 07:25:01;;;;;;;9.20;6.67;;;;;;;0.96;88.90;98610.78;5014409;28;20205;-87
2023/01/30 07:27:28;;;;;;;9.13;5.83;;;;;;;1.00;89.47;98606.38;5017567;28;20218;-95
2023/01/30 07:30:20;;;;;;;7.13;5.83;;;;;;;0.97;89.83;98612.50;5057853;23;20301;-90
2023/01/30 07:32:50;;;;;;;8.43;6.20;;;;;;;1.01;89.35;98598.53;5058715;28;20266;-96
2023/01/30 07:39:01;;;;;;;8.73;5.90;;;;;;;1.06;90.06;98609.66;5031174;28;20241;-95
2023/01/30 07:44:03;;;;;;;8.73;6.07;;;;;;;1.12;90.20;98627.72;5222579;23;20244;-90
2023/01/30 07:46:33;;;;;;;9.53;5.97;;;;;;;1.15;89.96;98629.41;5013586;28;20194;-90
2023/01/30 07:49:00;;;;;;;8.60;5.53;;;;;;;1.11;89.86;98633.00;5014164;28;20215;-93
2023/01/30 07:51:26;;;;;;;8.70;6.17;;;;;;;1.09;90.53;98637.38;5014481;28;20371;-91
2023/01/30 07:53:53;;;;;;;8.23;5.90;;;;;;;1.16;90.69;98628.53;5013733;28;20213;-92
2023/01/30 07:56:21;;;;;;;7.53;5.60;;;;;;;1.18;90.88;98626.75;5013264;28;20699;-92
2023/01/30 07:58:48;;;;;;;9.73;6.03;;;;;;;1.21;90.40;98617.13;5012235;28;20211;-92
2023/01/30 08:01:15;;;;;;;8.73;5.87;;;;;;;1.27;90.36;98606.53;5013436;28;20233;-92
2023/01/30 08:03:45;;;;;;;8.20;5.97;;;;;;;1.28;90.19;98603.03;5013198;28;20217;-92
2023/01/30 08:06:12;;;;;;;9.40;5.97;;;;;;;1.30;90.89;98606.44;5013503;28;20217;-88
2023/01/30 08:08:39;;;;;;;8.73;5.53;;;;;;;1.33;92.71;98611.59;5012649;28;20304;-89
2023/01/30 08:11:06;;;;;;;8.57;5.70;;;;;;;1.41;92.88;98620.06;5012403;28;20678;-89
2023/01/30 08:13:32;;;;;;;8.17;5.90;;;;;;;1.41;93.88;98635.69;5012824;28;20216;-92
2023/01/30 08:15:59;;;;;;;7.67;5.83;;;;;;;1.40;93.83;98644.41;5012727;28;20218;-89
2023/01/30 08:18:26;;;;;;;8.67;5.90;;;;;;;1.39;94.94;98658.31;5012778;28;20217;-89
2023/01/30 08:20:56;;;;;;;9.33;6.57;;;;;;;1.40;96.33;98639.19;5012268;28;20716;-93
2023/01/30 08:23:23;;;;;;;11.17;5.67;;;;;;;1.36;97.33;98615.88;5013403;28;20213;-91
2023/01/30 08:25:50;;;;;;;8.40;6.40;;;;;;;1.35;97.71;98609.81;5011114;28;20668;-91
2023/01/30 08:28:16;;;;;;;9.17;6.10;;;;;;;1.33;98.00;98606.38;5011612;28;20585;-91
2023/01/30 08:30:43;;;;;;;9.47;6.13;;;;;;;1.29;98.91;98594.34;5011786;28;20233;-91
2023/01/30 08:33:10;;;;;;;8.80;6.23;;;;;;;1.42;98.54;98569.69;5011924;28;20213;-90
2023/01/30 08:35:36;;;;;;;8.57;5.87;;;;;;;1.56;99.04;98562.38;5010145;28;20210;-90
2023/01/30 08:38:07;;;;;;;8.90;6.20;;;;;;;1.76;98.15;98560.06;5012402;28;20209;-92
2023/01/30 08:40:34;;;;;;;8.10;5.50;;;;;;;1.81;98.26;98579.06;5011237;28;20237;-87
2023/01/30 08:43:00;;;;;;;7.63;5.30;;;;;;;1.91;97.86;98585.69;5012087;28;20219;-93
2023/01/30 08:45:27;;;;;;;7.03;4.60;;;;;;;1.98;97.50;98571.63;5013227;28;20205;-93
2023/01/30 08:47:58;;;;;;;8.07;5.20;;;;;;;2.04;96.75;98571.44;5014158;28;20236;-92
2023/01/30 08:50:25;;;;;;;6.87;5.00;;;;;;;2.11;96.09;98580.81;5012126;28;20312;-92
2023/01/30 08:52:51;;;;;;;7.67;5.60;;;;;;;2.17;95.37;98557.16;5011837;28;20235;-91
2023/01/30 08:55:19;;;;;;;8.10;5.23;;;;;;;2.28;94.55;98555.06;5012630;28;20213;-91
2023/01/30 08:57:46;;;;;;;7.90;5.30;;;;;;;2.35;94.17;98551.41;5012257;28;20679;-90
2023/01/30 09:00:14;;;;;;;8.73;5.67;;;;;;;2.39;92.83;98529.53;5011475;28;20225;-82
2023/01/30 09:02:41;;;;;;;7.88;6.13;;;;;;;2.57;92.85;98531.56;5010284;28;20435;-83
2023/01/30 09:05:09;;;;;;;7.83;5.57;;;;;;;2.65;91.84;98508.72;5011566;28;20212;-80
2023/01/30 09:07:36;;;;;;;7.57;5.20;;;;;;;2.61;90.53;98494.03;5011263;28;20206;-80
2023/01/30 09:10:03;;;;;;;7.80;5.73;;;;;;;2.70;89.71;98493.72;5011091;28;20419;-80
2023/01/30 09:12:30;;;;;;;7.27;5.37;;;;;;;2.76;89.24;98505.75;5014510;28;20231;-80
2023/01/30 09:14:59;;;;;;;7.63;5.30;;;;;;;2.62;89.63;98503.56;5016199;28;20221;-92
2023/01/30 09:17:26;;;;;;;7.73;5.23;;;;;;;2.59;89.64;98508.91;5016415;28;20238;-91
2023/01/30 09:19:52;;;;;;;6.47;4.47;;;;;;;2.63;89.88;98510.50;5015847;28;20212;-92
2023/01/30 09:22:19;;;;;;;7.23;5.60;;;;;;;2.61;90.49;98516.66;5015606;28;20439;-92
2023/01/30 09:24:45;;;;;;;7.67;4.80;;;;;;;2.56;90.06;98515.97;5015835;28;20452;-86
2023/01/30 09:27:12;;;;;;;6.87;4.60;;;;;;;2.55;90.66;98512.50;5013460;28;20210;-90
2023/01/30 09:29:40;;;;;;;7.97;4.70;;;;;;;2.55;91.00;98517.72;5013663;28;20568;-90
2023/01/30 09:32:06;;;;;;;6.93;4.80;;;;;;;2.56;91.39;98519.41;5014204;28;20246;-90
2023/01/30 09:34:35;;;;;;;8.13;4.50;;;;;;;2.56;92.34;98515.97;5014287;28;20205;-84
2023/01/30 09:37:01;;;;;;;6.07;3.47;;;;;;;2.65;93.46;98524.38;5014030;28;20201;-91
2023/01/30 09:39:28;;;;;;;3.83;3.10;;;;;;;2.67;95.21;98522.56;5029933;28;20229;-90
2023/01/30 09:42:24;;;;;;;5.00;3.07;;;;;;;2.79;94.68;98506.50;5039572;28;20220;-91
2023/01/30 09:45:24;;;;;;;4.00;3.00;;;;;;;2.87;94.59;98507.09;5040339;28;20174;-91
2023/01/30 09:48:03;;;;;;;3.97;2.93;;;;;;;2.85;94.38;98498.47;5038846;28;20210;-90
2023/01/30 09:50:43;;;;;;;4.07;3.00;;;;;;;2.85;94.57;98506.31;5026642;28;20232;-89
2023/01/30 09:53:18;;;;;;;5.57;3.90;;;;;;;2.90;94.11;98503.53;5017127;28;20261;-89
2023/01/30 09:55:46;;;;;;;7.50;3.30;;;;;;;2.92;94.24;98492.13;5015082;28;20212;-89
2023/01/30 09:58:18;;;;;;;3.70;2.90;;;;;;;2.96;94.30;98485.06;5015574;28;20221;-89
2023/01/30 10:00:48;;;;;;;4.93;3.00;;;;;;;2.98;93.80;98465.81;5014781;28;20237;-89
2023/01/30 10:03:17;;;;;;;4.10;2.87;;;;;;;3.00;93.68;98478.84;5014855;28;20340;-89
2023/01/30 10:05:48;;;;;;;4.17;2.90;;;;;;;3.10;93.21;98481.06;5015149;28;20213;-89
2023/01/30 10:08:32;;;;;;;7.10;3.00;;;;;;;3.22;93.00;98485.00;5014788;28;20219;-88
2023/01/30 10:11:05;;;;;;;4.17;2.90;;;;;;;3.18;92.34;98466.00;5015228;28;20249;-88
2023/01/30 10:13:45;;;;;;;4.03;3.00;;;;;;;3.20;92.45;98464.19;5015109;28;20731;-88
2023/01/30 10:16:18;;;;;;;4.70;3.00;;;;;;;3.21;92.26;98452.84;5014759;28;20212;-89
2023/01/30 10:19:09;;;;;;;4.17;3.00;;;;;;;3.19;92.06;98454.63;5014841;28;20221;-84
2023/01/30 10:21:46;;;;;;;3.95;3.20;;;;;;;3.22;92.62;98456.28;5013023;28;20446;-90
2023/01/30 10:24:24;;;;;;;3.90;3.03;;;;;;;3.24;92.32;98463.16;5013485;28;20565;-92
2023/01/30 10:26:51;;;;;;;3.53;2.80;;;;;;;3.21;92.14;98458.06;5016498;28;20217;-90
2023/01/30 10:29:23;;;;;;;4.10;2.77;;;;;;;3.21;92.59;98459.81;5023394;28;20216;-90
2023/01/30 10:31:56;;;;;;;3.67;2.73;;;;;;;3.26;91.99;98455.28;5015330;28;20230;-91
2023/01/30 10:34:28;;;;;;;4.00;3.07;;;;;;;3.29;92.45;98456.03;5014887;28;20211;-91
2023/01/30 10:37:02;;;;;;;3.93;2.93;;;;;;;3.27;92.52;98460.47;5015433;28;20675;-90
2023/01/30 10:39:36;;;;;;;4.13;3.13;;;;;;;3.28;92.11;98470.00;5014889;28;20319;-89
2023/01/30 10:42:10;;;;;;;4.77;2.73;;;;;;;3.29;92.35;98461.25;5015649;28;20229;-89
2023/01/30 10:44:39;;;;;;;4.80;3.30;;;;;;;3.27;91.90;98449.16;5015109;28;20220;-89
2023/01/30 10:47:33;;;;;;;3.77;2.83;;;;;;;3.25;91.52;98445.75;5015359;28;20259;-89
2023/01/30 10:52:59;;;;;;;3.50;2.80;;;;;;;3.31;92.52;98442.91;5009901;28;20233;-77
2023/01/30 10:55:34;;;;;;;3.47;2.80;;;;;;;3.28;93.46;98449.09;5012958;28;20702;-79
2023/01/30 10:58:07;;;;;;;3.87;2.70;;;;;;;3.34;93.30;98455.84;5012939;28;20236;-77
2023/01/30 11:00:39;;;;;;;3.65;3.00;;;;;;;3.40;93.88;98448.66;5009679;28;20449;-78
2023/01/30 11:03:20;;;;;;;2.93;2.20;;;;;;;3.47;94.77;98455.38;4993208;28;20310;-77
2023/01/30 11:05:49;;;;;;;2.77;2.20;;;;;;;3.42;95.90;98462.50;4993359;28;20218;-80
2023/01/30 11:08:22;;;;;;;3.50;2.20;;;;;;;3.48;96.44;98462.28;4993230;28;20255;-77
2023/01/30 11:10:50;;;;;;;2.83;2.53;;;;;;;3.44;96.97;98470.31;4993014;28;20234;-77
2023/01/30 11:13:18;;;;;;;4.13;2.60;;;;;;;3.43;97.32;98472.06;4992992;28;20237;-77
2023/01/30 11:15:48;;;;;;;2.33;2.13;;;;;;;3.44;97.69;98476.41;4992899;28;20219;-76
2023/01/30 11:18:17;;;;;;;2.57;2.13;;;;;;;3.50;98.23;98465.72;4993118;28;20211;-78
2023/01/30 11:20:51;;;;;;;2.03;1.80;;;;;;;3.49;98.21;98464.00;4992745;28;20624;-76
2023/01/30 11:23:26;;;;;;;2.17;1.83;;;;;;;3.48;98.39;98458.84;4992810;28;20285;-79
2023/01/30 11:25:55;;;;;;;3.23;2.20;;;;;;;3.47;99.20;98455.38;4992721;28;20213;-78
2023/01/30 11:28:22;;;;;;;2.50;1.90;;;;;;;3.49;99.13;98447.50;4992783;28;20264;-78
2023/01/30 11:30:54;;;;;;;2.20;1.90;;;;;;;3.52;99.19;98456.06;4992701;28;20237;-75
2023/01/30 11:33:30;;;;;;;2.20;2.00;;;;;;;3.57;99.54;98459.38;4992170;28;20230;-77
2023/01/30 11:36:00;;;;;;;2.87;1.80;;;;;;;3.58;100.00;98462.81;4992641;28;20214;-78
2023/01/30 11:38:29;;;;;;;2.20;2.00;;;;;;;3.59;99.99;98467.13;4992492;28;20202;-78
2023/01/30 11:41:07;;;;;;;3.67;2.07;;;;;;;3.54;100.00;98456.84;4992203;28;20716;-77
2023/01/30 11:43:35;;;;;;;2.43;2.00;;;;;;;3.47;100.00;98478.88;4992660;28;20277;-77
2023/01/30 11:46:01;;;;;;;3.20;1.90;;;;;;;3.50;100.00;98478.78;4992433;28;20216;-77
2023/01/30 11:48:32;;;;;;;2.83;2.10;;;;;;;3.49;100.00;98484.06;4992351;28;20212;-76
2023/01/30 11:51:01;;;;;;;2.57;2.13;;;;;;;3.42;100.00;98485.19;4991917;28;20237;-77
2023/01/30 11:53:33;;;;;;;2.60;2.20;;;;;;;3.39;100.00;98467.88;4992458;28;20237;-76
2023/01/30 11:56:04;;;;;;;2.87;2.10;;;;;;;3.38;100.00;98468.78;4992606;28;20669;-77
2023/01/30 11:58:33;;;;;;;2.80;2.47;;;;;;;3.41;100.00;98465.16;4991279;28;20440;-79
2023/01/30 12:01:01;;;;;;;3.57;2.30;;;;;;;3.35;100.00;98460.16;4991951;28;20245;-78
2023/01/30 12:03:30;;;;;;;2.23;2.03;;;;;;;3.39;100.00;98467.88;4992079;28;20210;-78
2023/01/30 12:05:58;;;;;;;2.87;2.20;;;;;;;3.44;100.00;98449.41;4992313;28;20210;-77
2023/01/30 12:08:31;;;;;;;2.37;2.03;;;;;;;3.43;100.00;98453.75;4992430;28;20723;-80
2023/01/30 12:11:01;;;;;;;3.17;2.20;;;;;;;3.45;100.00;98458.94;4991677;28;20226;-80
2023/01/30 12:13:32;;;;;;;2.67;2.13;;;;;;;3.54;100.00;98450.78;4991072;28;20729;-78
2023/01/30 12:16:19;;;;;;;2.07;1.87;;;;;;;3.56;100.00;98438.50;4991950;28;20217;-79
2023/01/30 12:18:56;;;;;;;2.67;2.10;;;;;;;3.53;100.00;98449.94;4992067;28;20217;-76
2023/01/30 12:21:34;;;;;;;3.77;2.23;;;;;;;3.55;100.00;98447.25;4991825;28;20245;-78
2023/01/30 12:24:12;;;;;;;4.23;2.70;;;;;;;3.54;100.00;98456.84;4991842;28;20216;-76
2023/01/30 12:26:45;;;;;;;4.10;2.53;;;;;;;3.53;100.00;98455.16;4992106;28;20213;-77
2023/01/30 12:29:23;;;;;;;3.80;2.90;;;;;;;3.49;100.00;98445.69;4991601;28;20688;-76
2023/01/30 12:31:59;;;;;;;3.20;2.50;;;;;;;3.46;100.00;98447.56;4991734;28;20605;-76
2023/01/30 12:34:27;;;;;;;4.17;2.70;;;;;;;3.42;100.00;98457.28;4991896;28;20221;-76
2023/01/30 12:37:03;;;;;;;4.30;2.90;;;;;;;3.39;100.00;98444.34;4991705;28;20297;-78